Sublette, Illinois
Current Conditions -  °F | °C
As of 1:55 PM on Saturday 25 Oct 2014 (Local Time) from KRPJ Reporting Station
Clear Clear  
Wind Chill: 71°   Ceiling: Unl
Heat Index: 71°   Visibility: 10mi
Dew Point: 33°   Wind: 17mph
Humidity: 25%   Direction: 300°WNW
Pressure: 29.97"   Gusts: NA
Location:  41.64°N, 89.23°W
Report Text: KRPJ 251855Z AUTO 30015KT 10SM CLR 22/01 A2997 RMK AO2 T02160005
Loading
Personal Weather Stations






























Interactive Weather Map
Tropical Storm Tracking
New forecast layout! Learn more

10-Day Weather Forecast

Advertisements
Track Severe Weather on mobile